createdAt,value
2018-08-06T00:00:54.939Z,26.70
2018-08-06T00:01:26.662Z,26.70
2018-08-06T00:01:58.513Z,26.70
2018-08-06T00:02:30.249Z,26.70
2018-08-06T00:03:01.979Z,26.80
2018-08-06T00:03:33.699Z,26.80
2018-08-06T00:04:05.438Z,26.80
2018-08-06T00:04:37.160Z,26.80
2018-08-06T00:05:08.891Z,26.80
2018-08-06T00:05:40.616Z,26.80
2018-08-06T00:06:12.339Z,26.80
2018-08-06T00:06:44.060Z,26.80
2018-08-06T00:07:15.780Z,26.90
2018-08-06T00:07:47.515Z,26.80
2018-08-06T00:08:19.230Z,26.80
2018-08-06T00:08:50.954Z,26.80
2018-08-06T00:09:22.681Z,26.80
2018-08-06T00:09:54.401Z,26.80
2018-08-06T00:10:26.141Z,26.80
2018-08-06T00:10:57.854Z,26.80
2018-08-06T00:11:29.594Z,26.80
2018-08-06T00:12:01.393Z,26.80
2018-08-06T00:12:33.122Z,26.80
2018-08-06T00:13:37.093Z,26.90
2018-08-06T00:14:08.820Z,26.90
2018-08-06T00:14:40.547Z,26.90
2018-08-06T00:15:12.273Z,26.90
2018-08-06T00:15:44.047Z,26.90
2018-08-06T00:16:15.761Z,26.80
2018-08-06T00:16:47.503Z,26.80
2018-08-06T00:17:19.228Z,26.80
2018-08-06T00:17:50.953Z,26.80
2018-08-06T00:18:22.676Z,26.80
2018-08-06T00:18:54.403Z,26.80
2018-08-06T00:19:26.210Z,26.90
2018-08-06T00:19:57.936Z,26.80
2018-08-06T00:20:29.673Z,26.90
2018-08-06T00:21:01.402Z,26.90
2018-08-06T00:21:33.129Z,26.90
2018-08-06T00:22:04.844Z,26.90
2018-08-06T00:22:36.558Z,26.90
2018-08-06T00:23:08.297Z,26.90
2018-08-06T00:23:40.042Z,26.90
2018-08-06T00:24:11.768Z,26.90
2018-08-06T00:24:43.503Z,26.90
2018-08-06T00:25:15.299Z,26.90
2018-08-06T00:25:47.052Z,26.90
2018-08-06T00:26:18.780Z,26.90
2018-08-06T00:26:50.508Z,26.90
2018-08-06T00:27:22.225Z,26.80
2018-08-06T00:27:53.941Z,26.80
2018-08-06T00:28:25.673Z,26.80
2018-08-06T00:28:57.409Z,26.80
2018-08-06T00:29:29.205Z,26.80
2018-08-06T00:30:01.105Z,26.70
2018-08-06T00:30:32.841Z,26.70
2018-08-06T00:31:04.566Z,26.60
2018-08-06T00:31:36.293Z,26.60
2018-08-06T00:32:08.014Z,26.60
2018-08-06T00:32:39.730Z,26.60
2018-08-06T00:33:11.447Z,26.60
2018-08-06T00:33:43.182Z,26.70
2018-08-06T00:34:14.911Z,26.70
2018-08-06T00:34:46.640Z,26.70
2018-08-06T00:35:18.366Z,26.70
2018-08-06T00:35:50.089Z,26.80
2018-08-06T00:36:21.857Z,26.80
2018-08-06T00:36:53.619Z,26.80
2018-08-06T00:37:25.359Z,26.80
2018-08-06T00:37:57.097Z,26.80
2018-08-06T00:38:28.818Z,26.80
2018-08-06T00:39:00.545Z,26.80
2018-08-06T00:39:32.268Z,26.80
2018-08-06T00:40:04.021Z,26.80
2018-08-06T00:40:35.749Z,26.80
2018-08-06T00:41:07.463Z,26.80
2018-08-06T00:41:39.183Z,26.80
2018-08-06T00:42:10.934Z,26.80
2018-08-06T00:42:42.672Z,26.80
2018-08-06T00:43:14.427Z,26.90
2018-08-06T00:43:46.167Z,26.80
2018-08-06T00:44:17.894Z,26.80
2018-08-06T00:44:49.622Z,26.80
2018-08-06T00:45:21.356Z,26.80
2018-08-06T00:45:53.334Z,26.80
2018-08-06T00:46:25.095Z,26.80
2018-08-06T00:46:57.021Z,26.90
2018-08-06T00:47:28.742Z,26.80
2018-08-06T00:48:00.460Z,26.80
2018-08-06T00:48:32.191Z,26.80
2018-08-06T00:49:03.909Z,26.80
2018-08-06T00:49:35.630Z,26.80
2018-08-06T00:50:07.377Z,26.80
2018-08-06T00:50:39.202Z,26.90
2018-08-06T00:51:10.922Z,26.80
2018-08-06T00:51:42.652Z,26.80
2018-08-06T00:52:14.382Z,26.80
2018-08-06T00:52:46.113Z,26.80
2018-08-06T00:53:17.850Z,26.80
2018-08-06T00:53:49.574Z,26.80
2018-08-06T00:54:21.296Z,26.80
2018-08-06T00:54:53.025Z,26.80
2018-08-06T00:55:24.752Z,26.80
2018-08-06T00:55:56.482Z,26.80
2018-08-06T00:56:28.257Z,26.80
2018-08-06T00:56:59.970Z,26.80
2018-08-06T00:57:31.697Z,26.80
2018-08-06T00:58:03.428Z,26.80
2018-08-06T00:58:35.161Z,26.80
2018-08-06T00:59:06.897Z,26.80
2018-08-06T00:59:38.624Z,26.80
2018-08-06T01:00:10.351Z,26.80
2018-08-06T01:00:42.078Z,26.80
2018-08-06T01:01:13.798Z,26.80
2018-08-06T01:01:45.526Z,26.80
2018-08-06T01:02:17.258Z,26.80
2018-08-06T01:02:48.987Z,26.80
2018-08-06T01:03:20.701Z,26.80
2018-08-06T01:03:52.424Z,26.80
2018-08-06T01:04:24.153Z,26.80
2018-08-06T01:04:56.050Z,26.80
2018-08-06T01:05:27.777Z,26.80
2018-08-06T01:05:59.503Z,26.80
2018-08-06T01:06:31.227Z,26.80
2018-08-06T01:07:02.961Z,26.80
2018-08-06T01:07:34.722Z,26.80
2018-08-06T01:08:06.428Z,26.80
2018-08-06T01:08:38.151Z,26.80
2018-08-06T01:09:09.911Z,26.80
2018-08-06T01:09:41.637Z,26.80
2018-08-06T01:10:13.359Z,26.80
2018-08-06T01:10:45.170Z,26.80
2018-08-06T01:11:48.944Z,26.80
2018-08-06T01:12:20.654Z,26.80
2018-08-06T01:12:52.389Z,26.80
2018-08-06T01:13:24.111Z,26.80
2018-08-06T01:13:55.844Z,26.80
2018-08-06T01:14:27.600Z,26.70
2018-08-06T01:14:59.294Z,26.70
2018-08-06T01:15:31.053Z,26.70
2018-08-06T01:16:02.807Z,26.60
2018-08-06T01:16:34.528Z,26.60
2018-08-06T01:17:06.254Z,26.60
2018-08-06T01:17:37.975Z,26.60
2018-08-06T01:18:09.690Z,26.60
2018-08-06T01:18:41.417Z,26.60
2018-08-06T01:19:13.177Z,26.60
2018-08-06T01:19:44.905Z,26.60
2018-08-06T01:20:16.629Z,26.60
2018-08-06T01:20:48.367Z,26.60
2018-08-06T01:21:20.098Z,26.60
2018-08-06T01:21:51.819Z,26.60
2018-08-06T01:22:23.536Z,26.70
2018-08-06T01:22:55.265Z,26.70
2018-08-06T01:23:27.042Z,26.70
2018-08-06T01:23:58.777Z,26.70
2018-08-06T01:24:30.502Z,26.70
2018-08-06T01:25:02.221Z,26.70
2018-08-06T01:25:33.984Z,26.70
2018-08-06T01:26:05.878Z,26.70
2018-08-06T01:26:37.602Z,26.70
2018-08-06T01:27:09.330Z,26.70
2018-08-06T01:27:41.042Z,26.70
2018-08-06T01:28:12.772Z,26.70
2018-08-06T01:28:44.510Z,26.70
2018-08-06T01:29:16.239Z,26.70
2018-08-06T01:29:47.979Z,26.70
2018-08-06T01:30:19.741Z,26.70
2018-08-06T01:30:51.470Z,26.70
2018-08-06T01:31:23.195Z,26.70
2018-08-06T01:31:54.926Z,26.80
2018-08-06T01:32:26.641Z,26.70
2018-08-06T01:32:58.381Z,26.70
2018-08-06T01:33:30.114Z,26.70
2018-08-06T01:34:01.847Z,26.70
2018-08-06T01:34:33.561Z,26.70
2018-08-06T01:35:05.282Z,26.80
2018-08-06T01:35:37.009Z,26.70
2018-08-06T01:36:08.726Z,26.80
2018-08-06T01:36:40.533Z,26.70
2018-08-06T01:37:12.251Z,26.70
2018-08-06T01:37:43.982Z,26.80
2018-08-06T01:38:15.757Z,26.80
2018-08-06T01:38:47.486Z,26.70
2018-08-06T01:39:19.208Z,26.70
2018-08-06T01:39:51.005Z,26.70
2018-08-06T01:40:22.702Z,26.70
2018-08-06T01:40:54.483Z,26.70
2018-08-06T01:41:26.262Z,26.70
2018-08-06T01:41:58.160Z,26.70
2018-08-06T01:42:30.053Z,26.70
2018-08-06T01:43:01.766Z,26.70
2018-08-06T01:43:33.501Z,26.70
2018-08-06T01:44:05.220Z,26.70
2018-08-06T01:44:36.942Z,26.70
2018-08-06T01:45:08.675Z,26.70
2018-08-06T01:45:40.515Z,26.70
2018-08-06T01:46:12.428Z,26.70
2018-08-06T01:46:44.147Z,26.70
2018-08-06T01:47:16.000Z,26.70
2018-08-06T01:47:47.721Z,26.70
2018-08-06T01:48:19.446Z,26.70
2018-08-06T01:48:51.170Z,26.60
2018-08-06T01:49:22.947Z,26.60
2018-08-06T01:49:54.978Z,26.60
2018-08-06T01:50:26.698Z,26.60
2018-08-06T01:50:58.433Z,26.70
2018-08-06T01:51:30.142Z,26.70
2018-08-06T01:52:01.862Z,26.60
2018-08-06T01:52:33.611Z,26.70
2018-08-06T01:53:05.333Z,26.70
2018-08-06T01:53:37.281Z,26.70
2018-08-06T01:54:09.060Z,26.70
2018-08-06T01:54:40.742Z,26.60
2018-08-06T01:55:12.513Z,26.70
2018-08-06T01:55:44.258Z,26.60
2018-08-06T01:56:48.009Z,26.70
2018-08-06T01:57:19.736Z,26.60
2018-08-06T01:57:51.504Z,26.60
2018-08-06T01:58:23.405Z,26.70
2018-08-06T01:58:55.120Z,26.60
2018-08-06T01:59:26.825Z,26.60
2018-08-06T01:59:58.761Z,26.60
2018-08-06T02:00:30.480Z,26.60
2018-08-06T02:01:02.213Z,26.60
2018-08-06T02:02:05.967Z,26.60
2018-08-06T02:02:37.698Z,26.60
2018-08-06T02:03:09.429Z,26.50
2018-08-06T02:03:41.245Z,26.50
2018-08-06T02:04:12.980Z,26.50
2018-08-06T02:04:44.700Z,26.50
2018-08-06T02:05:16.439Z,26.50
2018-08-06T02:05:48.164Z,26.50
2018-08-06T02:06:19.912Z,26.50
2018-08-06T02:06:51.640Z,26.50
2018-08-06T02:07:23.454Z,26.50
2018-08-06T02:07:55.175Z,26.60
2018-08-06T02:08:26.901Z,26.50
2018-08-06T02:08:58.622Z,26.50
2018-08-06T02:09:30.352Z,26.50
2018-08-06T02:10:02.078Z,26.50
2018-08-06T02:10:33.808Z,26.50
2018-08-06T02:11:37.562Z,26.50
2018-08-06T02:12:09.285Z,26.50
2018-08-06T02:12:41.009Z,26.50
2018-08-06T02:13:12.736Z,26.50
2018-08-06T02:13:44.457Z,26.40
2018-08-06T02:14:16.182Z,26.40
2018-08-06T02:14:47.914Z,26.40
2018-08-06T02:15:19.641Z,26.40
2018-08-06T02:15:51.366Z,26.40
2018-08-06T02:16:23.093Z,26.40
2018-08-06T02:16:54.823Z,26.40
2018-08-06T02:17:26.543Z,26.40
2018-08-06T02:17:58.277Z,26.50
2018-08-06T02:18:30.023Z,26.50
2018-08-06T02:19:01.757Z,26.40
2018-08-06T02:19:33.474Z,26.50
2018-08-06T02:20:05.203Z,26.40
2018-08-06T02:20:36.920Z,26.40
2018-08-06T02:21:08.658Z,26.40
2018-08-06T02:21:40.416Z,26.40
2018-08-06T02:22:12.133Z,26.40
2018-08-06T02:22:43.866Z,26.40
2018-08-06T02:23:15.593Z,26.40
2018-08-06T02:23:47.407Z,26.40
2018-08-06T02:24:19.134Z,26.30
2018-08-06T02:24:50.857Z,26.30
2018-08-06T02:25:22.576Z,26.30
2018-08-06T02:25:54.333Z,26.30
2018-08-06T02:26:26.079Z,26.30
2018-08-06T02:26:57.786Z,26.30
2018-08-06T02:27:29.528Z,26.30
2018-08-06T02:28:01.254Z,26.30
2018-08-06T02:28:32.978Z,26.30
2018-08-06T02:29:04.703Z,26.30
2018-08-06T02:29:36.421Z,26.30
2018-08-06T02:30:08.168Z,26.30
2018-08-06T02:30:39.887Z,26.30
2018-08-06T02:31:43.645Z,26.30
2018-08-06T02:32:15.379Z,26.30
2018-08-06T02:32:47.101Z,26.30
2018-08-06T02:33:18.825Z,26.30
2018-08-06T02:33:50.561Z,26.30
2018-08-06T02:34:22.303Z,26.30
2018-08-06T02:34:54.227Z,26.30
2018-08-06T02:35:25.962Z,26.30
2018-08-06T02:35:57.684Z,26.30
2018-08-06T02:36:29.633Z,26.30
2018-08-06T02:37:01.442Z,26.30
2018-08-06T02:37:33.383Z,26.30
2018-08-06T02:38:05.301Z,26.30
2018-08-06T02:38:37.026Z,26.30
2018-08-06T02:39:08.769Z,26.30
2018-08-06T02:39:40.690Z,26.30
2018-08-06T02:40:12.420Z,26.20
2018-08-06T02:40:44.147Z,26.20
2018-08-06T02:41:15.862Z,26.20
2018-08-06T02:41:47.598Z,26.10
2018-08-06T02:42:19.322Z,26.10
2018-08-06T02:42:51.078Z,26.00
2018-08-06T02:43:22.793Z,26.00
2018-08-06T02:43:54.518Z,26.00
2018-08-06T02:44:26.251Z,25.90
2018-08-06T02:44:57.974Z,25.90
2018-08-06T02:45:29.708Z,25.80
2018-08-06T02:46:01.699Z,25.90
2018-08-06T02:46:33.453Z,25.80
2018-08-06T02:47:05.194Z,25.80
2018-08-06T02:47:36.985Z,25.90
2018-08-06T02:48:08.713Z,25.90
2018-08-06T02:48:40.433Z,25.80
2018-08-06T02:49:12.173Z,25.90
2018-08-06T02:49:43.888Z,25.90
2018-08-06T02:50:15.632Z,25.90
2018-08-06T02:50:47.390Z,25.90
2018-08-06T02:51:19.112Z,25.90
2018-08-06T02:51:50.825Z,25.80
2018-08-06T02:52:23.341Z,25.80
2018-08-06T02:52:55.039Z,25.80
2018-08-06T02:53:26.751Z,25.80
2018-08-06T02:54:30.497Z,25.80
2018-08-06T02:55:02.282Z,25.70
2018-08-06T02:55:34.216Z,25.70
2018-08-06T02:56:05.933Z,25.70
2018-08-06T02:56:37.690Z,25.70
2018-08-06T02:57:09.450Z,25.70
2018-08-06T02:57:41.182Z,25.70
2018-08-06T02:58:12.932Z,25.70
2018-08-06T02:58:44.662Z,25.70
2018-08-06T02:59:16.391Z,25.70
2018-08-06T02:59:48.136Z,25.70
2018-08-06T03:00:19.881Z,25.70
2018-08-06T03:00:51.594Z,25.70
2018-08-06T03:01:23.371Z,25.60
2018-08-06T03:01:55.093Z,25.60
2018-08-06T03:02:26.862Z,25.50
2018-08-06T03:02:58.596Z,25.50
2018-08-06T03:03:30.514Z,25.50
2018-08-06T03:04:02.273Z,25.50
2018-08-06T03:04:33.973Z,25.50
2018-08-06T03:05:05.897Z,25.40
2018-08-06T03:05:37.629Z,25.40
2018-08-06T03:06:09.355Z,25.40
2018-08-06T03:06:41.070Z,25.40
2018-08-06T03:07:12.799Z,25.40
2018-08-06T03:07:44.558Z,25.30
2018-08-06T03:08:16.452Z,25.30
2018-08-06T03:08:48.187Z,25.30
2018-08-06T03:09:19.904Z,25.40
2018-08-06T03:09:51.646Z,25.40
2018-08-06T03:10:23.378Z,25.40
2018-08-06T03:10:55.106Z,25.40
2018-08-06T03:11:26.846Z,25.40
2018-08-06T03:11:58.561Z,25.40
2018-08-06T03:12:30.325Z,25.30
2018-08-06T03:13:02.065Z,25.30
2018-08-06T03:13:33.780Z,25.30
2018-08-06T03:14:05.496Z,25.30
2018-08-06T03:14:37.240Z,25.20
2018-08-06T03:15:08.986Z,25.30
2018-08-06T03:16:12.722Z,25.30
2018-08-06T03:16:44.451Z,25.30
2018-08-06T03:17:16.177Z,25.30
2018-08-06T03:17:47.947Z,25.30
2018-08-06T03:18:19.860Z,25.40
2018-08-06T03:18:51.584Z,25.40
2018-08-06T03:19:23.302Z,25.40
2018-08-06T03:19:55.035Z,25.40
2018-08-06T03:20:26.785Z,25.40
2018-08-06T03:20:58.522Z,25.40
2018-08-06T03:21:30.259Z,25.40
2018-08-06T03:22:01.987Z,25.30
2018-08-06T03:22:33.713Z,25.30
2018-08-06T03:23:05.447Z,25.30
2018-08-06T03:23:37.169Z,25.20
2018-08-06T03:24:08.896Z,25.20
2018-08-06T03:24:40.648Z,25.20
2018-08-06T03:25:12.373Z,25.20
2018-08-06T03:25:44.101Z,25.20
2018-08-06T03:26:15.855Z,25.10
2018-08-06T03:26:47.584Z,25.10
2018-08-06T03:27:19.302Z,25.10
2018-08-06T03:27:51.014Z,25.10
2018-08-06T03:28:22.732Z,25.10
2018-08-06T03:28:54.461Z,25.10
2018-08-06T03:29:26.192Z,25.10
2018-08-06T03:29:58.109Z,25.10
2018-08-06T03:30:29.834Z,25.10
2018-08-06T03:31:01.558Z,25.10
2018-08-06T03:31:33.286Z,25.10
2018-08-06T03:32:05.010Z,25.00
2018-08-06T03:32:36.747Z,25.00
2018-08-06T03:33:08.742Z,25.00
2018-08-06T03:33:40.488Z,24.90
2018-08-06T03:34:12.213Z,25.00
2018-08-06T03:34:43.938Z,24.90
2018-08-06T03:35:15.666Z,25.00
2018-08-06T03:35:47.415Z,24.90
2018-08-06T03:36:19.138Z,24.90
2018-08-06T03:36:50.866Z,24.90
2018-08-06T03:37:22.637Z,24.90
2018-08-06T03:37:54.350Z,25.00
2018-08-06T03:38:26.085Z,25.10
2018-08-06T03:38:57.834Z,25.10
2018-08-06T03:39:29.565Z,25.20
2018-08-06T03:40:01.333Z,25.20
2018-08-06T03:40:33.054Z,25.30
2018-08-06T03:41:04.985Z,25.30
2018-08-06T03:41:36.711Z,25.30
2018-08-06T03:42:40.514Z,25.40
2018-08-06T03:43:12.438Z,25.40
2018-08-06T03:43:44.157Z,25.40
2018-08-06T03:44:15.889Z,25.40
2018-08-06T03:44:47.606Z,25.40
2018-08-06T03:45:19.336Z,25.30
2018-08-06T03:45:51.069Z,25.30
2018-08-06T03:46:22.804Z,25.30
2018-08-06T03:46:54.532Z,25.30
2018-08-06T03:47:26.438Z,25.30
2018-08-06T03:47:58.438Z,25.30
2018-08-06T03:48:30.161Z,25.30
2018-08-06T03:49:01.896Z,25.30
2018-08-06T03:49:33.631Z,25.30
2018-08-06T03:50:05.366Z,25.30
2018-08-06T03:50:37.092Z,25.30
2018-08-06T03:51:08.825Z,25.30
2018-08-06T03:51:40.554Z,25.30
2018-08-06T03:52:12.300Z,25.30
2018-08-06T03:52:44.133Z,25.30
2018-08-06T03:53:16.030Z,25.30
2018-08-06T03:53:47.777Z,25.30
2018-08-06T03:54:19.506Z,25.40
2018-08-06T03:54:51.223Z,25.40
2018-08-06T03:55:22.949Z,25.40
2018-08-06T03:55:54.674Z,25.50
2018-08-06T03:56:26.390Z,25.50
2018-08-06T03:56:58.128Z,25.50
2018-08-06T03:57:29.846Z,25.50
2018-08-06T03:58:01.571Z,25.50
2018-08-06T03:58:33.294Z,25.60
2018-08-06T03:59:05.030Z,25.60
2018-08-06T03:59:36.745Z,25.50
2018-08-06T04:00:08.467Z,25.50
2018-08-06T04:00:40.194Z,25.60
2018-08-06T04:01:11.905Z,25.60
2018-08-06T04:01:43.638Z,25.60
2018-08-06T04:02:15.372Z,25.60
2018-08-06T04:02:47.108Z,25.60
2018-08-06T04:03:18.870Z,25.60
2018-08-06T04:03:50.601Z,25.60
2018-08-06T04:04:54.320Z,25.70
2018-08-06T04:05:26.049Z,25.70
2018-08-06T04:05:57.762Z,25.70
2018-08-06T04:06:29.691Z,25.70
2018-08-06T04:07:01.419Z,25.70
2018-08-06T04:07:33.159Z,25.70
2018-08-06T04:08:04.889Z,25.70
2018-08-06T04:08:36.610Z,25.60
2018-08-06T04:09:08.344Z,25.60
2018-08-06T04:09:40.071Z,25.60
2018-08-06T04:10:11.794Z,25.50
2018-08-06T04:10:43.554Z,25.50
2018-08-06T04:11:15.273Z,25.50
2018-08-06T04:11:47.004Z,25.50
2018-08-06T04:12:18.760Z,25.50
2018-08-06T04:12:50.474Z,25.50
2018-08-06T04:13:22.207Z,25.50
2018-08-06T04:13:54.161Z,25.60
2018-08-06T04:14:25.884Z,25.50
2018-08-06T04:14:57.615Z,25.40
2018-08-06T04:15:29.351Z,25.50
2018-08-06T04:16:01.307Z,25.40
2018-08-06T04:16:33.030Z,25.40
2018-08-06T04:17:04.770Z,25.50
2018-08-06T04:17:36.496Z,25.50
2018-08-06T04:18:08.220Z,25.50
2018-08-06T04:18:39.962Z,25.50
2018-08-06T04:19:11.754Z,25.40
2018-08-06T04:19:43.524Z,25.50
2018-08-06T04:20:15.403Z,25.50
2018-08-06T04:20:47.137Z,25.40
2018-08-06T04:21:18.917Z,25.40
2018-08-06T04:21:50.655Z,25.40
2018-08-06T04:22:22.386Z,25.40
2018-08-06T04:22:54.113Z,25.50
2018-08-06T04:23:25.843Z,25.40
2018-08-06T04:23:57.571Z,25.40
2018-08-06T04:24:29.289Z,25.40
2018-08-06T04:25:01.023Z,25.40
2018-08-06T04:25:32.764Z,25.40
2018-08-06T04:26:04.521Z,25.40
2018-08-06T04:26:36.265Z,25.40
2018-08-06T04:27:07.972Z,25.40
2018-08-06T04:27:39.717Z,25.40
2018-08-06T04:28:11.464Z,25.40
2018-08-06T04:28:43.188Z,25.40
2018-08-06T04:29:14.920Z,25.40
2018-08-06T04:29:46.652Z,25.40
2018-08-06T04:30:18.381Z,25.40
2018-08-06T04:30:50.109Z,25.40
2018-08-06T04:31:21.828Z,25.40
2018-08-06T04:31:53.571Z,25.40
2018-08-06T04:32:25.299Z,25.40
2018-08-06T04:32:57.056Z,25.40
2018-08-06T04:33:28.965Z,25.40
2018-08-06T04:34:00.754Z,25.40
2018-08-06T04:34:32.517Z,25.40
2018-08-06T04:35:04.254Z,25.40
2018-08-06T04:36:08.313Z,25.40
2018-08-06T04:36:40.046Z,25.40
2018-08-06T04:37:11.773Z,25.40
2018-08-06T04:37:43.499Z,25.40
2018-08-06T04:38:15.218Z,25.40
2018-08-06T04:38:46.939Z,25.40
2018-08-06T04:39:18.662Z,25.40
2018-08-06T04:39:50.394Z,25.40
2018-08-06T04:40:22.135Z,25.40
2018-08-06T04:40:53.878Z,25.40
2018-08-06T04:41:25.670Z,25.40
2018-08-06T04:41:57.678Z,25.40
2018-08-06T04:42:29.406Z,25.40
2018-08-06T04:43:01.145Z,25.40
2018-08-06T04:43:32.893Z,25.40
2018-08-06T04:44:04.632Z,25.40
2018-08-06T04:44:36.356Z,25.40
2018-08-06T04:45:08.082Z,25.40
2018-08-06T04:45:39.835Z,25.40
2018-08-06T04:46:11.577Z,25.50
2018-08-06T04:46:43.304Z,25.40
2018-08-06T04:47:15.083Z,25.50
2018-08-06T04:47:46.806Z,25.50
2018-08-06T04:48:18.541Z,25.40
2018-08-06T04:48:50.271Z,25.40
2018-08-06T04:49:22.016Z,25.40
2018-08-06T04:49:53.750Z,25.50
2018-08-06T04:50:25.460Z,25.40
2018-08-06T04:50:57.208Z,25.40
2018-08-06T04:51:28.950Z,25.50
2018-08-06T04:52:00.666Z,25.50
2018-08-06T04:52:32.402Z,25.50
2018-08-06T04:53:04.133Z,25.50
2018-08-06T04:53:35.870Z,25.50
2018-08-06T04:54:07.612Z,25.50
2018-08-06T04:54:39.339Z,25.50
2018-08-06T04:55:11.087Z,25.50
2018-08-06T04:55:42.876Z,25.50
2018-08-06T04:56:14.590Z,25.50
2018-08-06T04:56:46.341Z,25.50
2018-08-06T04:57:18.071Z,25.40
2018-08-06T04:57:49.794Z,25.40
2018-08-06T04:58:21.522Z,25.50
2018-08-06T04:58:53.277Z,25.50
2018-08-06T04:59:25.002Z,25.50
2018-08-06T04:59:56.913Z,25.50
2018-08-06T05:00:28.629Z,25.50
2018-08-06T05:01:00.407Z,25.50
2018-08-06T05:01:32.145Z,25.50
2018-08-06T05:02:03.906Z,25.50
2018-08-06T05:02:35.642Z,25.50
2018-08-06T05:03:07.378Z,25.50
2018-08-06T05:03:39.100Z,25.50
2018-08-06T05:04:11.225Z,25.50
2018-08-06T05:04:43.078Z,25.50
2018-08-06T05:05:14.788Z,25.50
2018-08-06T05:05:46.513Z,25.50
2018-08-06T05:06:18.246Z,25.50
2018-08-06T05:06:50.019Z,25.50
2018-08-06T05:07:21.901Z,25.50
2018-08-06T05:07:53.658Z,25.50
2018-08-06T05:08:25.383Z,25.50
2018-08-06T05:08:57.097Z,25.50
2018-08-06T05:09:28.828Z,25.50
2018-08-06T05:10:00.652Z,25.50
2018-08-06T05:10:32.368Z,25.50
2018-08-06T05:11:04.212Z,25.40
2018-08-06T05:11:35.904Z,25.40
2018-08-06T05:12:07.630Z,25.40
2018-08-06T05:12:39.373Z,25.50
2018-08-06T05:13:11.084Z,25.40
2018-08-06T05:13:42.819Z,25.40
2018-08-06T05:14:14.740Z,25.40
2018-08-06T05:14:46.661Z,25.40
2018-08-06T05:15:18.405Z,25.40
2018-08-06T05:15:50.141Z,25.40
2018-08-06T05:16:21.871Z,25.40
2018-08-06T05:16:53.584Z,25.40
2018-08-06T05:17:25.510Z,25.40
2018-08-06T05:17:57.264Z,25.40
2018-08-06T05:18:29.145Z,25.40
2018-08-06T05:19:00.842Z,25.40
2018-08-06T05:19:32.618Z,25.40
2018-08-06T05:20:04.517Z,25.40
2018-08-06T05:20:36.234Z,25.40
2018-08-06T05:21:07.973Z,25.40
2018-08-06T05:21:39.705Z,25.40
2018-08-06T05:22:11.430Z,25.40
2018-08-06T05:23:47.222Z,25.40
2018-08-06T05:24:18.954Z,25.40
2018-08-06T05:24:50.746Z,25.40
2018-08-06T05:25:22.609Z,25.30
2018-08-06T05:25:54.342Z,25.40
2018-08-06T05:26:26.274Z,25.40
2018-08-06T05:26:58.029Z,25.40
2018-08-06T05:27:29.744Z,25.40
2018-08-06T05:28:01.673Z,25.40
2018-08-06T05:28:33.373Z,25.40
2018-08-06T05:29:05.094Z,25.40
2018-08-06T05:29:36.823Z,25.40
2018-08-06T05:30:08.609Z,25.40
2018-08-06T05:30:40.350Z,25.30
2018-08-06T05:31:12.312Z,25.30
2018-08-06T05:31:44.022Z,25.30
2018-08-06T05:32:15.749Z,25.30
2018-08-06T05:32:47.484Z,25.30
2018-08-06T05:33:19.204Z,25.30
2018-08-06T05:33:50.931Z,25.30
2018-08-06T05:34:22.653Z,25.30
2018-08-06T05:34:54.450Z,25.30
2018-08-06T05:35:26.155Z,25.30
2018-08-06T05:35:57.941Z,25.30
2018-08-06T05:36:29.652Z,25.30
2018-08-06T05:37:33.428Z,25.20
2018-08-06T05:38:05.140Z,25.30
2018-08-06T05:38:36.871Z,25.30
2018-08-06T05:39:08.598Z,25.30
2018-08-06T05:39:40.328Z,25.30
2018-08-06T05:40:12.048Z,25.30
2018-08-06T05:40:43.775Z,25.30
2018-08-06T05:41:15.506Z,25.30
2018-08-06T05:41:47.228Z,25.30
2018-08-06T05:42:18.953Z,25.30
2018-08-06T05:42:50.693Z,25.30
2018-08-06T05:43:22.442Z,25.30
2018-08-06T05:43:54.193Z,25.30
2018-08-06T05:44:25.929Z,25.30
2018-08-06T05:44:57.638Z,25.30
2018-08-06T05:45:29.371Z,25.30
2018-08-06T05:46:01.090Z,25.30
2018-08-06T05:46:32.855Z,25.20
2018-08-06T05:47:04.573Z,25.20
2018-08-06T05:47:36.318Z,25.30
2018-08-06T05:48:08.102Z,25.30
2018-08-06T05:48:39.977Z,25.30
2018-08-06T05:49:11.712Z,25.30
2018-08-06T05:49:43.429Z,25.30
2018-08-06T05:50:15.146Z,25.20
2018-08-06T05:50:46.867Z,25.20
2018-08-06T05:51:18.621Z,25.20
2018-08-06T05:51:50.335Z,25.20
2018-08-06T05:52:22.059Z,25.20
2018-08-06T05:52:53.797Z,25.30
2018-08-06T05:53:25.526Z,25.30
2018-08-06T05:53:57.263Z,25.30
2018-08-06T05:54:28.985Z,25.30
2018-08-06T05:55:00.743Z,25.30
2018-08-06T05:55:32.471Z,25.30
2018-08-06T05:56:04.216Z,25.30
2018-08-06T05:56:35.952Z,25.20
2018-08-06T05:57:07.690Z,25.20
2018-08-06T05:57:39.415Z,25.20
2018-08-06T05:58:11.182Z,25.20
2018-08-06T05:58:43.094Z,25.20
2018-08-06T05:59:14.819Z,25.20
2018-08-06T05:59:46.546Z,25.20
2018-08-06T06:00:18.270Z,25.20
2018-08-06T06:00:50.090Z,25.20
2018-08-06T06:01:21.825Z,25.20
2018-08-06T06:01:53.537Z,25.30
2018-08-06T06:02:25.282Z,25.20
2018-08-06T06:02:57.014Z,25.20
2018-08-06T06:03:28.739Z,25.30
2018-08-06T06:04:00.488Z,25.30
2018-08-06T06:04:32.235Z,25.20
2018-08-06T06:05:03.985Z,25.20
2018-08-06T06:05:35.706Z,25.20
2018-08-06T06:06:07.458Z,25.20
2018-08-06T06:06:39.366Z,25.30
2018-08-06T06:07:43.136Z,25.30
2018-08-06T06:08:14.880Z,25.20
2018-08-06T06:08:46.607Z,25.20
2018-08-06T06:09:18.342Z,25.20
2018-08-06T06:09:50.064Z,25.30
2018-08-06T06:10:21.795Z,25.20
2018-08-06T06:10:53.518Z,25.20
2018-08-06T06:11:25.261Z,25.20
2018-08-06T06:11:57.199Z,25.20
2018-08-06T06:12:28.962Z,25.30
2018-08-06T06:13:00.710Z,25.30
2018-08-06T06:13:32.448Z,25.30
2018-08-06T06:14:04.221Z,25.30
2018-08-06T06:14:35.996Z,25.30
2018-08-06T06:15:07.727Z,25.30
2018-08-06T06:15:39.550Z,25.30
2018-08-06T06:16:11.273Z,25.30
2018-08-06T06:16:43.340Z,25.20
2018-08-06T06:17:15.071Z,25.20
2018-08-06T06:17:46.831Z,25.20
2018-08-06T06:18:18.558Z,25.20
2018-08-06T06:18:50.283Z,25.20
2018-08-06T06:19:22.018Z,25.20
2018-08-06T06:19:53.728Z,25.20
2018-08-06T06:20:25.445Z,25.20
2018-08-06T06:20:57.198Z,25.20
2018-08-06T06:21:28.916Z,25.20
2018-08-06T06:22:00.643Z,25.20
2018-08-06T06:22:32.433Z,25.20
2018-08-06T06:23:04.152Z,25.20
2018-08-06T06:23:36.086Z,25.20
2018-08-06T06:24:07.818Z,25.20
2018-08-06T06:24:39.550Z,25.20
2018-08-06T06:25:11.291Z,25.20
2018-08-06T06:25:43.027Z,25.30
2018-08-06T06:26:14.959Z,25.30
2018-08-06T06:26:46.670Z,25.30
2018-08-06T06:27:18.401Z,25.40
2018-08-06T06:27:50.136Z,25.30
2018-08-06T06:28:21.858Z,25.30
2018-08-06T06:28:53.599Z,25.30
2018-08-06T06:29:25.334Z,25.30
2018-08-06T06:29:57.069Z,25.30
2018-08-06T06:30:28.788Z,25.30
2018-08-06T06:31:00.526Z,25.30
2018-08-06T06:31:32.241Z,25.30
2018-08-06T06:32:04.034Z,25.30
2018-08-06T06:32:35.774Z,25.30
2018-08-06T06:33:07.564Z,25.40
2018-08-06T06:33:39.266Z,25.30
2018-08-06T06:34:10.997Z,25.40
2018-08-06T06:34:42.799Z,25.30
2018-08-06T06:35:14.691Z,25.30
2018-08-06T06:35:46.413Z,25.30
2018-08-06T06:36:18.137Z,25.30
2018-08-06T06:36:49.868Z,25.30
2018-08-06T06:37:21.601Z,25.30
2018-08-06T06:37:53.326Z,25.30
2018-08-06T06:38:25.041Z,25.30
2018-08-06T06:38:56.769Z,25.30
2018-08-06T06:39:28.550Z,25.30
2018-08-06T06:40:00.263Z,25.30
2018-08-06T06:40:31.997Z,25.30
2018-08-06T06:41:03.732Z,25.30
2018-08-06T06:41:35.537Z,25.30
2018-08-06T06:42:07.453Z,25.30
2018-08-06T06:42:39.217Z,25.30
2018-08-06T06:43:10.941Z,25.30
2018-08-06T06:43:42.677Z,25.30
2018-08-06T06:44:14.401Z,25.40
2018-08-06T06:44:46.141Z,25.40
2018-08-06T06:45:17.872Z,25.40
2018-08-06T06:45:49.631Z,25.40
2018-08-06T06:46:21.337Z,25.30
2018-08-06T06:46:53.074Z,25.40
2018-08-06T06:47:24.777Z,25.40
2018-08-06T06:47:56.508Z,25.40
2018-08-06T06:48:28.286Z,25.40
2018-08-06T06:49:00.134Z,25.40
2018-08-06T06:49:31.969Z,25.40
2018-08-06T06:50:03.709Z,25.40
2018-08-06T06:50:35.487Z,25.40
2018-08-06T06:51:07.202Z,25.40
2018-08-06T06:51:38.943Z,25.40
2018-08-06T06:52:10.660Z,25.40
2018-08-06T06:52:42.412Z,25.40
2018-08-06T06:53:14.193Z,25.40
2018-08-06T06:53:45.920Z,25.30
2018-08-06T06:54:17.659Z,25.40
2018-08-06T06:55:21.573Z,25.40
2018-08-06T06:55:53.303Z,25.40
2018-08-06T06:56:25.031Z,25.40
2018-08-06T06:56:56.793Z,25.40
2018-08-06T06:57:28.562Z,25.40
2018-08-06T06:58:00.298Z,25.40